sensor_id;sensor_type;location;lat;lon;timestamp;P1;durP1;ratioP1;P2;durP2;ratioP2
19260;SDS011;9764;48.114;11.670;2024-01-15T00:01:36;5.45;;;4.43;;
19260;SDS011;9764;48.114;11.670;2024-01-15T00:04:06;7.45;;;5.30;;
19260;SDS011;9764;48.114;11.670;2024-01-15T00:06:35;5.88;;;4.50;;
19260;SDS011;9764;48.114;11.670;2024-01-15T00:09:04;6.60;;;4.35;;
19260;SDS011;9764;48.114;11.670;2024-01-15T00:11:33;6.55;;;4.57;;
19260;SDS011;9764;48.114;11.670;2024-01-15T00:14:01;6.60;;;4.22;;
19260;SDS011;9764;48.114;11.670;2024-01-15T00:16:30;6.03;;;4.35;;
19260;SDS011;9764;48.114;11.670;2024-01-15T00:18:59;5.95;;;4.45;;
19260;SDS011;9764;48.114;11.670;2024-01-15T00:21:29;4.78;;;4.28;;
19260;SDS011;9764;48.114;11.670;2024-01-15T00:23:57;6.03;;;4.78;;
19260;SDS011;9764;48.114;11.670;2024-01-15T00:26:26;4.88;;;4.13;;
19260;SDS011;9764;48.114;11.670;2024-01-15T00:28:54;5.70;;;4.45;;
19260;SDS011;9764;48.114;11.670;2024-01-15T00:31:23;6.43;;;4.60;;
19260;SDS011;9764;48.114;11.670;2024-01-15T00:33:51;6.53;;;4.78;;
19260;SDS011;9764;48.114;11.670;2024-01-15T00:36:20;5.20;;;4.18;;
19260;SDS011;9764;48.114;11.670;2024-01-15T00:38:50;6.18;;;4.43;;
19260;SDS011;9764;48.114;11.670;2024-01-15T00:41:19;6.53;;;4.70;;
19260;SDS011;9764;48.114;11.670;2024-01-15T00:43:48;4.93;;;4.00;;
19260;SDS011;9764;48.114;11.670;2024-01-15T00:46:16;6.07;;;4.45;;
19260;SDS011;9764;48.114;11.670;2024-01-15T00:48:46;5.10;;;4.30;;
19260;SDS011;9764;48.114;11.670;2024-01-15T00:51:15;7.22;;;4.70;;
19260;SDS011;9764;48.114;11.670;2024-01-15T00:53:43;5.00;;;4.43;;
19260;SDS011;9764;48.114;11.670;2024-01-15T00:56:13;5.05;;;4.00;;
19260;SDS011;9764;48.114;11.670;2024-01-15T00:58:42;5.13;;;3.85;;
19260;SDS011;9764;48.114;11.670;2024-01-15T01:01:10;5.50;;;4.85;;
19260;SDS011;9764;48.114;11.670;2024-01-15T01:03:39;5.72;;;4.32;;
19260;SDS011;9764;48.114;11.670;2024-01-15T01:06:07;4.88;;;3.53;;
19260;SDS011;9764;48.114;11.670;2024-01-15T01:08:36;5.30;;;4.78;;
19260;SDS011;9764;48.114;11.670;2024-01-15T01:11:04;5.82;;;4.38;;
19260;SDS011;9764;48.114;11.670;2024-01-15T01:13:35;5.07;;;4.07;;
19260;SDS011;9764;48.114;11.670;2024-01-15T01:16:03;7.13;;;4.30;;
19260;SDS011;9764;48.114;11.670;2024-01-15T01:18:32;5.18;;;4.20;;
19260;SDS011;9764;48.114;11.670;2024-01-15T01:21:01;5.85;;;4.30;;
19260;SDS011;9764;48.114;11.670;2024-01-15T01:23:29;7.25;;;4.38;;
19260;SDS011;9764;48.114;11.670;2024-01-15T01:25:58;4.93;;;3.72;;
19260;SDS011;9764;48.114;11.670;2024-01-15T01:28:26;5.55;;;4.20;;
19260;SDS011;9764;48.114;11.670;2024-01-15T01:30:56;5.10;;;3.95;;
19260;SDS011;9764;48.114;11.670;2024-01-15T01:33:24;4.70;;;3.75;;
19260;SDS011;9764;48.114;11.670;2024-01-15T01:35:53;5.22;;;4.00;;
19260;SDS011;9764;48.114;11.670;2024-01-15T01:38:22;4.90;;;4.40;;
19260;SDS011;9764;48.114;11.670;2024-01-15T01:40:51;4.55;;;4.15;;
19260;SDS011;9764;48.114;11.670;2024-01-15T01:43:19;5.60;;;4.35;;
19260;SDS011;9764;48.114;11.670;2024-01-15T01:45:48;4.18;;;3.65;;
19260;SDS011;9764;48.114;11.670;2024-01-15T01:48:18;6.03;;;4.10;;
19260;SDS011;9764;48.114;11.670;2024-01-15T01:50:46;6.60;;;4.30;;
19260;SDS011;9764;48.114;11.670;2024-01-15T01:53:15;4.70;;;3.78;;
19260;SDS011;9764;48.114;11.670;2024-01-15T01:55:43;4.75;;;3.88;;
19260;SDS011;9764;48.114;11.670;2024-01-15T01:58:13;4.47;;;3.97;;
19260;SDS011;9764;48.114;11.670;2024-01-15T02:00:42;4.28;;;3.72;;
19260;SDS011;9764;48.114;11.670;2024-01-15T02:03:10;5.25;;;4.03;;
19260;SDS011;9764;48.114;11.670;2024-01-15T02:05:40;5.03;;;4.53;;
19260;SDS011;9764;48.114;11.670;2024-01-15T02:08:11;5.10;;;4.60;;
19260;SDS011;9764;48.114;11.670;2024-01-15T02:10:39;4.82;;;3.88;;
19260;SDS011;9764;48.114;11.670;2024-01-15T02:13:08;5.05;;;4.03;;
19260;SDS011;9764;48.114;11.670;2024-01-15T02:15:37;4.72;;;3.97;;
19260;SDS011;9764;48.114;11.670;2024-01-15T02:18:06;6.35;;;4.18;;
19260;SDS011;9764;48.114;11.670;2024-01-15T02:20:35;6.43;;;4.00;;
19260;SDS011;9764;48.114;11.670;2024-01-15T02:23:07;5.47;;;4.07;;
19260;SDS011;9764;48.114;11.670;2024-01-15T02:25:37;5.50;;;3.58;;
19260;SDS011;9764;48.114;11.670;2024-01-15T02:28:06;5.10;;;3.70;;
19260;SDS011;9764;48.114;11.670;2024-01-15T02:30:34;5.75;;;3.92;;
19260;SDS011;9764;48.114;11.670;2024-01-15T02:33:05;4.50;;;3.92;;
19260;SDS011;9764;48.114;11.670;2024-01-15T02:35:34;5.65;;;4.47;;
19260;SDS011;9764;48.114;11.670;2024-01-15T02:38:03;4.55;;;3.80;;
19260;SDS011;9764;48.114;11.670;2024-01-15T02:40:34;4.68;;;3.78;;
19260;SDS011;9764;48.114;11.670;2024-01-15T02:43:02;4.68;;;4.00;;
19260;SDS011;9764;48.114;11.670;2024-01-15T02:45:31;4.82;;;3.78;;
19260;SDS011;9764;48.114;11.670;2024-01-15T02:48:00;6.50;;;4.43;;
19260;SDS011;9764;48.114;11.670;2024-01-15T02:50:28;4.38;;;3.97;;
19260;SDS011;9764;48.114;11.670;2024-01-15T02:52:57;5.72;;;3.90;;
19260;SDS011;9764;48.114;11.670;2024-01-15T02:55:25;6.18;;;4.35;;
19260;SDS011;9764;48.114;11.670;2024-01-15T02:57:57;5.45;;;3.85;;
19260;SDS011;9764;48.114;11.670;2024-01-15T03:00:25;4.95;;;4.07;;
19260;SDS011;9764;48.114;11.670;2024-01-15T03:02:54;5.20;;;3.97;;
19260;SDS011;9764;48.114;11.670;2024-01-15T03:05:23;5.45;;;3.88;;
19260;SDS011;9764;48.114;11.670;2024-01-15T03:07:52;4.72;;;3.63;;
19260;SDS011;9764;48.114;11.670;2024-01-15T03:10:20;4.18;;;3.35;;
19260;SDS011;9764;48.114;11.670;2024-01-15T03:12:49;4.80;;;3.88;;
19260;SDS011;9764;48.114;11.670;2024-01-15T03:15:19;4.80;;;3.63;;
19260;SDS011;9764;48.114;11.670;2024-01-15T03:17:47;5.05;;;3.72;;
19260;SDS011;9764;48.114;11.670;2024-01-15T03:20:16;5.80;;;4.10;;
19260;SDS011;9764;48.114;11.670;2024-01-15T03:22:44;4.15;;;3.60;;
19260;SDS011;9764;48.114;11.670;2024-01-15T03:25:12;3.97;;;3.30;;
19260;SDS011;9764;48.114;11.670;2024-01-15T03:27:41;4.88;;;4.30;;
19260;SDS011;9764;48.114;11.670;2024-01-15T03:30:10;4.38;;;3.97;;
19260;SDS011;9764;48.114;11.670;2024-01-15T03:32:40;4.70;;;3.90;;
19260;SDS011;9764;48.114;11.670;2024-01-15T03:35:09;5.45;;;4.00;;
19260;SDS011;9764;48.114;11.670;2024-01-15T03:37:37;4.25;;;3.53;;
19260;SDS011;9764;48.114;11.670;2024-01-15T03:40:06;3.95;;;3.55;;
19260;SDS011;9764;48.114;11.670;2024-01-15T03:42:35;4.55;;;3.80;;
19260;SDS011;9764;48.114;11.670;2024-01-15T03:45:04;4.97;;;3.83;;
19260;SDS011;9764;48.114;11.670;2024-01-15T03:47:33;5.03;;;3.65;;
19260;SDS011;9764;48.114;11.670;2024-01-15T03:50:03;4.18;;;3.78;;
19260;SDS011;9764;48.114;11.670;2024-01-15T03:52:32;4.13;;;3.67;;
19260;SDS011;9764;48.114;11.670;2024-01-15T03:55:01;4.03;;;3.53;;
19260;SDS011;9764;48.114;11.670;2024-01-15T03:57:29;3.90;;;3.35;;
19260;SDS011;9764;48.114;11.670;2024-01-15T03:59:58;3.80;;;3.38;;
19260;SDS011;9764;48.114;11.670;2024-01-15T04:02:26;4.60;;;3.53;;
19260;SDS011;9764;48.114;11.670;2024-01-15T04:04:55;4.25;;;3.55;;
19260;SDS011;9764;48.114;11.670;2024-01-15T04:07:25;5.40;;;4.35;;
19260;SDS011;9764;48.114;11.670;2024-01-15T04:09:54;4.32;;;3.78;;
19260;SDS011;9764;48.114;11.670;2024-01-15T04:12:22;4.20;;;3.60;;
19260;SDS011;9764;48.114;11.670;2024-01-15T04:14:51;4.80;;;3.50;;
19260;SDS011;9764;48.114;11.670;2024-01-15T04:17:19;5.07;;;3.65;;
19260;SDS011;9764;48.114;11.670;2024-01-15T04:19:48;4.70;;;3.55;;
19260;SDS011;9764;48.114;11.670;2024-01-15T04:22:17;4.38;;;3.65;;
19260;SDS011;9764;48.114;11.670;2024-01-15T04:24:47;4.50;;;3.35;;
19260;SDS011;9764;48.114;11.670;2024-01-15T04:27:16;4.22;;;3.35;;
19260;SDS011;9764;48.114;11.670;2024-01-15T04:29:44;4.10;;;3.45;;
19260;SDS011;9764;48.114;11.670;2024-01-15T04:32:13;4.05;;;3.50;;
19260;SDS011;9764;48.114;11.670;2024-01-15T04:34:41;4.35;;;3.72;;
19260;SDS011;9764;48.114;11.670;2024-01-15T04:37:10;4.53;;;3.40;;
19260;SDS011;9764;48.114;11.670;2024-01-15T04:39:38;4.75;;;3.72;;
19260;SDS011;9764;48.114;11.670;2024-01-15T04:42:08;4.60;;;3.20;;
19260;SDS011;9764;48.114;11.670;2024-01-15T04:44:37;3.50;;;3.20;;
19260;SDS011;9764;48.114;11.670;2024-01-15T04:47:05;5.18;;;4.00;;
19260;SDS011;9764;48.114;11.670;2024-01-15T04:49:34;4.75;;;3.38;;
19260;SDS011;9764;48.114;11.670;2024-01-15T04:52:02;4.50;;;3.67;;
19260;SDS011;9764;48.114;11.670;2024-01-15T04:54:31;4.10;;;3.38;;
19260;SDS011;9764;48.114;11.670;2024-01-15T04:56:59;3.78;;;3.33;;
19260;SDS011;9764;48.114;11.670;2024-01-15T04:59:30;4.47;;;3.35;;
19260;SDS011;9764;48.114;11.670;2024-01-15T05:01:58;4.50;;;3.42;;
19260;SDS011;9764;48.114;11.670;2024-01-15T05:04:27;3.80;;;3.40;;
19260;SDS011;9764;48.114;11.670;2024-01-15T05:06:56;4.47;;;3.70;;
19260;SDS011;9764;48.114;11.670;2024-01-15T05:09:24;3.97;;;3.35;;
19260;SDS011;9764;48.114;11.670;2024-01-15T05:11:56;3.95;;;3.28;;
19260;SDS011;9764;48.114;11.670;2024-01-15T05:14:24;4.05;;;3.65;;
19260;SDS011;9764;48.114;11.670;2024-01-15T05:16:54;4.80;;;3.67;;
19260;SDS011;9764;48.114;11.670;2024-01-15T05:19:23;5.22;;;3.47;;
19260;SDS011;9764;48.114;11.670;2024-01-15T05:21:52;3.67;;;3.30;;
19260;SDS011;9764;48.114;11.670;2024-01-15T05:24:20;5.10;;;3.60;;
19260;SDS011;9764;48.114;11.670;2024-01-15T05:26:49;4.00;;;3.17;;
19260;SDS011;9764;48.114;11.670;2024-01-15T05:29:18;3.40;;;3.08;;
19260;SDS011;9764;48.114;11.670;2024-01-15T05:31:46;3.60;;;3.30;;
19260;SDS011;9764;48.114;11.670;2024-01-15T05:34:16;3.80;;;3.40;;
19260;SDS011;9764;48.114;11.670;2024-01-15T05:36:45;3.60;;;3.30;;
19260;SDS011;9764;48.114;11.670;2024-01-15T05:39:14;4.80;;;3.28;;
19260;SDS011;9764;48.114;11.670;2024-01-15T05:41:43;4.35;;;3.28;;
19260;SDS011;9764;48.114;11.670;2024-01-15T05:44:11;5.60;;;3.40;;
19260;SDS011;9764;48.114;11.670;2024-01-15T05:46:40;4.32;;;3.40;;
19260;SDS011;9764;48.114;11.670;2024-01-15T05:49:08;4.28;;;3.30;;
19260;SDS011;9764;48.114;11.670;2024-01-15T05:51:39;4.30;;;3.30;;
19260;SDS011;9764;48.114;11.670;2024-01-15T05:54:07;4.22;;;3.10;;
19260;SDS011;9764;48.114;11.670;2024-01-15T05:56:36;3.72;;;3.03;;
19260;SDS011;9764;48.114;11.670;2024-01-15T05:59:04;3.75;;;3.38;;
19260;SDS011;9764;48.114;11.670;2024-01-15T06:01:33;5.15;;;3.05;;
19260;SDS011;9764;48.114;11.670;2024-01-15T06:04:01;4.80;;;3.50;;
19260;SDS011;9764;48.114;11.670;2024-01-15T06:06:30;4.00;;;3.60;;
19260;SDS011;9764;48.114;11.670;2024-01-15T06:09:00;4.63;;;3.42;;
19260;SDS011;9764;48.114;11.670;2024-01-15T06:11:32;5.15;;;3.55;;
19260;SDS011;9764;48.114;11.670;2024-01-15T06:14:01;4.65;;;3.45;;
19260;SDS011;9764;48.114;11.670;2024-01-15T06:16:29;4.50;;;3.40;;
19260;SDS011;9764;48.114;11.670;2024-01-15T06:18:57;5.00;;;3.05;;
19260;SDS011;9764;48.114;11.670;2024-01-15T06:21:26;4.68;;;3.45;;
19260;SDS011;9764;48.114;11.670;2024-01-15T06:23:55;7.07;;;3.38;;
19260;SDS011;9764;48.114;11.670;2024-01-15T06:26:24;3.72;;;3.13;;
19260;SDS011;9764;48.114;11.670;2024-01-15T06:28:53;6.85;;;3.45;;
19260;SDS011;9764;48.114;11.670;2024-01-15T06:31:21;5.40;;;3.20;;
19260;SDS011;9764;48.114;11.670;2024-01-15T06:33:50;4.47;;;3.20;;
19260;SDS011;9764;48.114;11.670;2024-01-15T06:36:19;10.00;;;3.90;;
19260;SDS011;9764;48.114;11.670;2024-01-15T06:38:48;9.27;;;3.25;;
19260;SDS011;9764;48.114;11.670;2024-01-15T06:41:16;8.68;;;3.60;;
19260;SDS011;9764;48.114;11.670;2024-01-15T06:43:46;5.57;;;3.35;;
19260;SDS011;9764;48.114;11.670;2024-01-15T06:46:19;10.70;;;4.00;;
19260;SDS011;9764;48.114;11.670;2024-01-15T06:48:47;6.55;;;3.80;;
19260;SDS011;9764;48.114;11.670;2024-01-15T06:51:16;10.73;;;4.20;;
19260;SDS011;9764;48.114;11.670;2024-01-15T06:53:45;10.30;;;4.45;;
19260;SDS011;9764;48.114;11.670;2024-01-15T06:56:13;12.68;;;4.53;;
19260;SDS011;9764;48.114;11.670;2024-01-15T06:58:42;9.27;;;4.35;;
19260;SDS011;9764;48.114;11.670;2024-01-15T07:01:11;10.45;;;4.15;;
19260;SDS011;9764;48.114;11.670;2024-01-15T07:03:41;9.10;;;4.18;;
19260;SDS011;9764;48.114;11.670;2024-01-15T07:06:10;11.77;;;4.65;;
19260;SDS011;9764;48.114;11.670;2024-01-15T07:08:39;11.52;;;4.22;;
19260;SDS011;9764;48.114;11.670;2024-01-15T07:11:08;8.65;;;5.78;;
19260;SDS011;9764;48.114;11.670;2024-01-15T07:13:36;8.88;;;4.85;;
19260;SDS011;9764;48.114;11.670;2024-01-15T07:16:05;9.43;;;5.20;;
19260;SDS011;9764;48.114;11.670;2024-01-15T07:18:35;12.07;;;6.60;;
19260;SDS011;9764;48.114;11.670;2024-01-15T07:21:04;10.27;;;6.90;;
19260;SDS011;9764;48.114;11.670;2024-01-15T07:23:32;11.73;;;7.10;;
19260;SDS011;9764;48.114;11.670;2024-01-15T07:26:01;12.57;;;7.15;;
19260;SDS011;9764;48.114;11.670;2024-01-15T07:28:29;10.57;;;7.03;;
19260;SDS011;9764;48.114;11.670;2024-01-15T07:30:58;10.98;;;6.28;;
19260;SDS011;9764;48.114;11.670;2024-01-15T07:33:28;13.85;;;6.50;;
19260;SDS011;9764;48.114;11.670;2024-01-15T07:35:58;8.57;;;5.47;;
19260;SDS011;9764;48.114;11.670;2024-01-15T07:38:29;7.90;;;4.82;;
19260;SDS011;9764;48.114;11.670;2024-01-15T07:40:57;8.65;;;4.78;;
19260;SDS011;9764;48.114;11.670;2024-01-15T07:43:26;7.18;;;4.63;;
19260;SDS011;9764;48.114;11.670;2024-01-15T07:45:55;7.63;;;4.40;;
19260;SDS011;9764;48.114;11.670;2024-01-15T07:48:25;4.93;;;3.67;;
19260;SDS011;9764;48.114;11.670;2024-01-15T07:50:53;5.57;;;4.22;;
19260;SDS011;9764;48.114;11.670;2024-01-15T07:53:23;6.97;;;3.83;;
19260;SDS011;9764;48.114;11.670;2024-01-15T07:55:52;11.88;;;4.25;;
19260;SDS011;9764;48.114;11.670;2024-01-15T07:58:20;8.75;;;4.00;;
19260;SDS011;9764;48.114;11.670;2024-01-15T08:00:49;5.78;;;4.05;;
19260;SDS011;9764;48.114;11.670;2024-01-15T08:03:18;7.00;;;4.20;;
19260;SDS011;9764;48.114;11.670;2024-01-15T08:05:47;6.43;;;3.83;;
19260;SDS011;9764;48.114;11.670;2024-01-15T08:08:19;5.40;;;3.85;;
19260;SDS011;9764;48.114;11.670;2024-01-15T08:10:50;6.07;;;3.65;;
19260;SDS011;9764;48.114;11.670;2024-01-15T08:13:18;4.72;;;3.45;;
19260;SDS011;9764;48.114;11.670;2024-01-15T08:15:47;5.93;;;3.90;;
19260;SDS011;9764;48.114;11.670;2024-01-15T08:18:16;5.15;;;3.65;;
19260;SDS011;9764;48.114;11.670;2024-01-15T08:20:45;4.65;;;3.80;;
19260;SDS011;9764;48.114;11.670;2024-01-15T08:23:13;9.32;;;4.25;;
19260;SDS011;9764;48.114;11.670;2024-01-15T08:25:42;3.65;;;3.30;;
19260;SDS011;9764;48.114;11.670;2024-01-15T08:28:12;7.85;;;3.45;;
19260;SDS011;9764;48.114;11.670;2024-01-15T08:30:40;5.10;;;3.63;;
19260;SDS011;9764;48.114;11.670;2024-01-15T08:33:09;8.02;;;3.60;;
19260;SDS011;9764;48.114;11.670;2024-01-15T08:35:47;8.52;;;3.70;;
19260;SDS011;9764;48.114;11.670;2024-01-15T08:38:16;6.32;;;3.50;;
19260;SDS011;9764;48.114;11.670;2024-01-15T08:40:44;4.03;;;3.40;;
19260;SDS011;9764;48.114;11.670;2024-01-15T08:43:15;7.25;;;3.40;;
19260;SDS011;9764;48.114;11.670;2024-01-15T08:45:43;5.78;;;3.30;;
19260;SDS011;9764;48.114;11.670;2024-01-15T08:48:13;4.40;;;3.33;;
19260;SDS011;9764;48.114;11.670;2024-01-15T08:50:41;6.63;;;3.78;;
19260;SDS011;9764;48.114;11.670;2024-01-15T08:53:12;4.70;;;3.63;;
19260;SDS011;9764;48.114;11.670;2024-01-15T08:55:41;4.35;;;2.90;;
19260;SDS011;9764;48.114;11.670;2024-01-15T08:58:11;7.65;;;3.78;;
19260;SDS011;9764;48.114;11.670;2024-01-15T09:00:41;5.75;;;2.97;;
19260;SDS011;9764;48.114;11.670;2024-01-15T09:03:09;4.72;;;3.10;;
19260;SDS011;9764;48.114;11.670;2024-01-15T09:05:38;3.47;;;2.92;;
19260;SDS011;9764;48.114;11.670;2024-01-15T09:08:07;3.72;;;3.10;;
19260;SDS011;9764;48.114;11.670;2024-01-15T09:10:36;3.63;;;3.05;;
19260;SDS011;9764;48.114;11.670;2024-01-15T09:13:04;4.28;;;3.00;;
19260;SDS011;9764;48.114;11.670;2024-01-15T09:15:33;5.65;;;3.35;;
19260;SDS011;9764;48.114;11.670;2024-01-15T09:18:03;3.13;;;2.80;;
19260;SDS011;9764;48.114;11.670;2024-01-15T09:20:34;4.93;;;3.30;;
19260;SDS011;9764;48.114;11.670;2024-01-15T09:23:02;4.70;;;2.90;;
19260;SDS011;9764;48.114;11.670;2024-01-15T09:25:31;4.60;;;3.30;;
19260;SDS011;9764;48.114;11.670;2024-01-15T09:27:59;5.78;;;2.97;;
19260;SDS011;9764;48.114;11.670;2024-01-15T09:30:28;5.85;;;3.17;;
19260;SDS011;9764;48.114;11.670;2024-01-15T09:32:57;7.03;;;3.38;;
19260;SDS011;9764;48.114;11.670;2024-01-15T09:35:27;8.18;;;3.58;;
19260;SDS011;9764;48.114;11.670;2024-01-15T09:37:55;4.40;;;2.88;;
19260;SDS011;9764;48.114;11.670;2024-01-15T09:40:24;3.80;;;3.17;;
19260;SDS011;9764;48.114;11.670;2024-01-15T09:42:53;3.35;;;2.80;;
19260;SDS011;9764;48.114;11.670;2024-01-15T09:45:22;4.68;;;3.13;;
19260;SDS011;9764;48.114;11.670;2024-01-15T09:47:50;6.90;;;3.50;;
19260;SDS011;9764;48.114;11.670;2024-01-15T09:50:19;4.95;;;3.30;;
19260;SDS011;9764;48.114;11.670;2024-01-15T09:52:49;4.40;;;2.78;;
19260;SDS011;9764;48.114;11.670;2024-01-15T09:55:18;3.92;;;3.13;;
19260;SDS011;9764;48.114;11.670;2024-01-15T09:57:46;5.43;;;3.38;;
19260;SDS011;9764;48.114;11.670;2024-01-15T10:00:15;8.13;;;3.15;;
19260;SDS011;9764;48.114;11.670;2024-01-15T10:02:45;4.55;;;3.50;;
19260;SDS011;9764;48.114;11.670;2024-01-15T10:05:14;6.00;;;2.72;;
19260;SDS011;9764;48.114;11.670;2024-01-15T10:07:42;5.90;;;3.28;;
19260;SDS011;9764;48.114;11.670;2024-01-15T10:10:13;3.78;;;3.00;;
19260;SDS011;9764;48.114;11.670;2024-01-15T10:12:42;3.95;;;2.83;;
19260;SDS011;9764;48.114;11.670;2024-01-15T10:15:11;3.42;;;2.92;;
19260;SDS011;9764;48.114;11.670;2024-01-15T10:17:40;4.57;;;2.90;;
19260;SDS011;9764;48.114;11.670;2024-01-15T10:20:09;6.60;;;3.13;;
19260;SDS011;9764;48.114;11.670;2024-01-15T10:22:39;5.53;;;3.03;;
19260;SDS011;9764;48.114;11.670;2024-01-15T10:25:13;4.18;;;2.83;;
19260;SDS011;9764;48.114;11.670;2024-01-15T10:27:43;8.43;;;3.05;;
19260;SDS011;9764;48.114;11.670;2024-01-15T10:30:12;4.47;;;2.60;;
19260;SDS011;9764;48.114;11.670;2024-01-15T10:32:41;5.07;;;3.08;;
19260;SDS011;9764;48.114;11.670;2024-01-15T10:35:10;3.33;;;2.65;;
19260;SDS011;9764;48.114;11.670;2024-01-15T10:37:41;6.97;;;2.90;;
19260;SDS011;9764;48.114;11.670;2024-01-15T10:40:10;6.68;;;3.05;;
19260;SDS011;9764;48.114;11.670;2024-01-15T10:42:40;4.95;;;3.00;;
19260;SDS011;9764;48.114;11.670;2024-01-15T10:45:08;4.85;;;2.97;;
19260;SDS011;9764;48.114;11.670;2024-01-15T10:47:37;6.25;;;2.97;;
19260;SDS011;9764;48.114;11.670;2024-01-15T10:50:06;5.32;;;2.70;;
19260;SDS011;9764;48.114;11.670;2024-01-15T10:52:35;60.55;;;26.20;;
19260;SDS011;9764;48.114;11.670;2024-01-15T10:55:03;79.18;;;33.53;;
19260;SDS011;9764;48.114;11.670;2024-01-15T10:57:41;143.02;;;60.40;;
19260;SDS011;9764;48.114;11.670;2024-01-15T11:00:10;224.40;;;98.18;;
19260;SDS011;9764;48.114;11.670;2024-01-15T11:02:41;232.20;;;101.55;;
19260;SDS011;9764;48.114;11.670;2024-01-15T11:05:11;282.25;;;113.70;;
19260;SDS011;9764;48.114;11.670;2024-01-15T11:07:40;243.90;;;101.90;;
19260;SDS011;9764;48.114;11.670;2024-01-15T11:10:11;228.27;;;96.47;;
19260;SDS011;9764;48.114;11.670;2024-01-15T11:13:01;215.30;;;93.70;;
19260;SDS011;9764;48.114;11.670;2024-01-15T11:15:31;211.10;;;88.03;;
19260;SDS011;9764;48.114;11.670;2024-01-15T11:18:00;197.73;;;83.43;;
19260;SDS011;9764;48.114;11.670;2024-01-15T11:20:32;196.20;;;79.45;;
19260;SDS011;9764;48.114;11.670;2024-01-15T11:23:00;181.15;;;75.13;;
19260;SDS011;9764;48.114;11.670;2024-01-15T11:25:34;172.32;;;71.57;;
19260;SDS011;9764;48.114;11.670;2024-01-15T11:28:05;163.43;;;68.72;;
19260;SDS011;9764;48.114;11.670;2024-01-15T11:30:34;150.70;;;66.00;;
19260;SDS011;9764;48.114;11.670;2024-01-15T11:33:03;151.85;;;62.63;;
19260;SDS011;9764;48.114;11.670;2024-01-15T11:35:49;140.30;;;60.03;;
19260;SDS011;9764;48.114;11.670;2024-01-15T11:38:28;130.88;;;57.33;;
19260;SDS011;9764;48.114;11.670;2024-01-15T11:40:56;124.45;;;54.63;;
19260;SDS011;9764;48.114;11.670;2024-01-15T11:43:29;134.35;;;55.53;;
19260;SDS011;9764;48.114;11.670;2024-01-15T11:45:59;118.75;;;52.05;;
19260;SDS011;9764;48.114;11.670;2024-01-15T11:48:33;115.72;;;48.65;;
19260;SDS011;9764;48.114;11.670;2024-01-15T11:51:08;108.70;;;45.25;;
19260;SDS011;9764;48.114;11.670;2024-01-15T11:53:43;109.07;;;45.38;;
19260;SDS011;9764;48.114;11.670;2024-01-15T11:56:14;103.07;;;43.33;;
19260;SDS011;9764;48.114;11.670;2024-01-15T11:58:44;97.45;;;42.28;;
19260;SDS011;9764;48.114;11.670;2024-01-15T12:01:13;92.65;;;38.88;;
19260;SDS011;9764;48.114;11.670;2024-01-15T12:03:42;84.43;;;39.67;;
19260;SDS011;9764;48.114;11.670;2024-01-15T12:06:11;84.18;;;38.03;;
19260;SDS011;9764;48.114;11.670;2024-01-15T12:08:40;93.28;;;36.30;;
19260;SDS011;9764;48.114;11.670;2024-01-15T12:11:10;79.63;;;34.67;;
19260;SDS011;9764;48.114;11.670;2024-01-15T12:13:39;69.60;;;32.15;;
19260;SDS011;9764;48.114;11.670;2024-01-15T12:16:09;67.10;;;31.38;;
19260;SDS011;9764;48.114;11.670;2024-01-15T12:18:38;69.50;;;30.85;;
19260;SDS011;9764;48.114;11.670;2024-01-15T12:21:07;65.15;;;30.17;;
19260;SDS011;9764;48.114;11.670;2024-01-15T12:23:35;69.57;;;31.20;;
19260;SDS011;9764;48.114;11.670;2024-01-15T12:26:04;65.35;;;29.35;;
19260;SDS011;9764;48.114;11.670;2024-01-15T12:28:32;68.10;;;29.25;;
19260;SDS011;9764;48.114;11.670;2024-01-15T12:31:01;49.92;;;26.45;;
19260;SDS011;9764;48.114;11.670;2024-01-15T12:33:34;56.70;;;25.58;;
19260;SDS011;9764;48.114;11.670;2024-01-15T12:36:03;58.55;;;25.60;;
19260;SDS011;9764;48.114;11.670;2024-01-15T12:38:33;54.17;;;24.40;;
19260;SDS011;9764;48.114;11.670;2024-01-15T12:41:01;51.45;;;24.95;;
19260;SDS011;9764;48.114;11.670;2024-01-15T12:43:30;50.25;;;24.33;;
19260;SDS011;9764;48.114;11.670;2024-01-15T12:45:59;52.50;;;24.25;;
19260;SDS011;9764;48.114;11.670;2024-01-15T12:48:28;49.53;;;24.02;;
19260;SDS011;9764;48.114;11.670;2024-01-15T12:50:58;47.70;;;23.05;;
19260;SDS011;9764;48.114;11.670;2024-01-15T12:53:27;46.78;;;22.00;;
19260;SDS011;9764;48.114;11.670;2024-01-15T12:55:55;46.08;;;19.70;;
19260;SDS011;9764;48.114;11.670;2024-01-15T12:58:24;43.05;;;20.35;;
19260;SDS011;9764;48.114;11.670;2024-01-15T13:00:52;41.83;;;21.02;;
19260;SDS011;9764;48.114;11.670;2024-01-15T13:03:22;40.80;;;19.80;;
19260;SDS011;9764;48.114;11.670;2024-01-15T13:05:50;43.92;;;19.45;;
19260;SDS011;9764;48.114;11.670;2024-01-15T13:08:20;40.40;;;19.27;;
19260;SDS011;9764;48.114;11.670;2024-01-15T13:10:51;40.42;;;18.42;;
19260;SDS011;9764;48.114;11.670;2024-01-15T13:13:23;41.90;;;19.20;;
19260;SDS011;9764;48.114;11.670;2024-01-15T13:15:51;37.72;;;18.88;;
19260;SDS011;9764;48.114;11.670;2024-01-15T13:18:20;38.70;;;17.77;;
19260;SDS011;9764;48.114;11.670;2024-01-15T13:20:49;34.15;;;17.50;;
19260;SDS011;9764;48.114;11.670;2024-01-15T13:23:17;37.30;;;17.00;;
19260;SDS011;9764;48.114;11.670;2024-01-15T13:25:47;32.85;;;16.83;;
19260;SDS011;9764;48.114;11.670;2024-01-15T13:28:16;35.42;;;17.45;;
19260;SDS011;9764;48.114;11.670;2024-01-15T13:30:45;34.47;;;17.10;;
19260;SDS011;9764;48.114;11.670;2024-01-15T13:33:14;37.08;;;17.15;;
19260;SDS011;9764;48.114;11.670;2024-01-15T13:35:43;36.45;;;17.67;;
19260;SDS011;9764;48.114;11.670;2024-01-15T13:38:11;39.50;;;17.92;;
19260;SDS011;9764;48.114;11.670;2024-01-15T13:40:41;37.65;;;16.00;;
19260;SDS011;9764;48.114;11.670;2024-01-15T13:43:12;33.03;;;16.33;;
19260;SDS011;9764;48.114;11.670;2024-01-15T13:45:41;30.42;;;16.90;;
19260;SDS011;9764;48.114;11.670;2024-01-15T13:48:10;32.58;;;15.90;;
19260;SDS011;9764;48.114;11.670;2024-01-15T13:50:38;35.90;;;16.92;;
19260;SDS011;9764;48.114;11.670;2024-01-15T13:53:07;33.33;;;15.52;;
19260;SDS011;9764;48.114;11.670;2024-01-15T13:55:36;33.95;;;16.48;;
19260;SDS011;9764;48.114;11.670;2024-01-15T13:58:05;31.27;;;16.02;;
19260;SDS011;9764;48.114;11.670;2024-01-15T14:00:35;28.33;;;14.65;;
19260;SDS011;9764;48.114;11.670;2024-01-15T14:03:04;30.38;;;14.77;;
19260;SDS011;9764;48.114;11.670;2024-01-15T14:05:32;27.27;;;15.07;;
19260;SDS011;9764;48.114;11.670;2024-01-15T14:08:01;32.58;;;15.88;;
19260;SDS011;9764;48.114;11.670;2024-01-15T14:10:30;34.20;;;14.52;;
19260;SDS011;9764;48.114;11.670;2024-01-15T14:12:59;29.60;;;13.90;;
19260;SDS011;9764;48.114;11.670;2024-01-15T14:15:28;28.52;;;14.15;;
19260;SDS011;9764;48.114;11.670;2024-01-15T14:17:58;30.05;;;13.32;;
19260;SDS011;9764;48.114;11.670;2024-01-15T14:20:27;26.38;;;12.93;;
19260;SDS011;9764;48.114;11.670;2024-01-15T14:22:56;30.63;;;13.85;;
19260;SDS011;9764;48.114;11.670;2024-01-15T14:25:24;28.02;;;14.23;;
19260;SDS011;9764;48.114;11.670;2024-01-15T14:27:53;29.55;;;13.98;;
19260;SDS011;9764;48.114;11.670;2024-01-15T14:30:21;25.27;;;12.98;;
19260;SDS011;9764;48.114;11.670;2024-01-15T14:32:50;30.63;;;14.55;;
19260;SDS011;9764;48.114;11.670;2024-01-15T14:35:20;23.92;;;13.02;;
19260;SDS011;9764;48.114;11.670;2024-01-15T14:37:49;23.73;;;13.40;;
19260;SDS011;9764;48.114;11.670;2024-01-15T14:40:17;27.35;;;13.40;;
19260;SDS011;9764;48.114;11.670;2024-01-15T14:42:46;27.27;;;12.75;;
19260;SDS011;9764;48.114;11.670;2024-01-15T14:45:15;30.52;;;13.75;;
19260;SDS011;9764;48.114;11.670;2024-01-15T14:47:43;24.27;;;12.98;;
19260;SDS011;9764;48.114;11.670;2024-01-15T14:50:12;27.83;;;13.27;;